Hundvaag 1 weather for Jan 2003
Month no. 187
Obs.
Da.
Temp. Dew Point Precip. Wind
Speed
Wind gusts Cloud cover Press. Humidity Wind dir. Sunny OPT
01.01.2003 1,0   2,9 7,0   1 1006,3 75,0 270,0   55,0 %
02.01.2003 -4,5   0,0 7,0   0 1002,0 91,0 315,0   47,5 %
03.01.2003 -2,6   0,0 0,0   0 1005,3 63,0   1 50,0 %
04.01.2003 -4,4   0,8 6,0   0 1013,3 83,0 315,0   47,5 %
05.01.2003 0,7   2,1 9,0   10 1010,9 87,0 180,0 1 75,0 %
06.01.2003 -7,8   0,0 5,0   5 1018,6 91,0 337,5 1 60,0 %
07.01.2003 -5,3   0,0 0,0   10 1020,1 91,0   1 75,0 %
08.01.2003 -4,6   0,0 1,0   10 1019,0 91,0   1 75,0 %
09.01.2003 -4,7   0,0 0,0   10 1020,0 100,0   1 75,0 %
10.01.2003 -2,9   0,0 5,0   0 1021,1 91,0 337,5   47,5 %
11.01.2003 2,4   1,4 13,0   0 1021,3 100,0 90,0   47,5 %
12.01.2003 5,0   3,8 13,0   0 1015,9 93,0 315,0   50,0 %
13.01.2003 5,2   10,7 15,0   0 1009,4 100,0 90,0   42,5 %
14.01.2003 6,8   7,7 23,0   0 1007,7 87,0 90,0   40,0 %
15.01.2003 6,8   6,9 16,0   0 1004,8 93,0 22,5 1 45,0 %
16.01.2003 4,9   0,8 21,0   10 1006,0 87,0 157,5 1 70,0 %
17.01.2003 6,9   0,6 25,0   0 1006,6 87,0 0,0   45,0 %
18.01.2003 5,3   0,1 13,0   2 1004,7 81,0 67,5 1 57,5 %
19.01.2003 5,1   0,1 15,0   0 1005,4 87,0 337,5   50,0 %
20.01.2003 5,6   7,6 21,0   0 995,4 87,0 22,5 1 42,5 %
21.01.2003 6,6   12,0 13,0   0 992,7 93,0 0,0   42,5 %
22.01.2003 5,7   4,6 7,0   0 997,6 87,0 315,0   55,0 %
23.01.2003 2,5   1,7 16,0   10 1010,7 81,0 180,0 1 72,5 %
24.01.2003 2,2   0,0 21,0   0 1008,0 65,0 337,5   42,5 %
25.01.2003 7,0   19,7 22,0   0 1010,4 93,0 0,0   30,0 %
26.01.2003 6,3   26,3 9,0   9 1012,6 93,0 90,0 1 57,5 %
27.01.2003 7,9   2,7 15,0   0 1010,9 100,0 90,0   52,5 %
28.01.2003 4,2   10,3 17,0   0 998,8 93,0 225,0 1 40,0 %
29.01.2003 -1,3   0,1 5,0   10 1003,4 84,0 180,0 1 75,0 %
30.01.2003 -3,8   0,1 6,0   10 1005,4 76,0 180,0 1 72,5 %
31.01.2003 -6,2   0,0 12,0   10 1016,7 83,0 180,0 1 67,5 %
Avrg/Sum 1,6   123,0 11,5   3,5 1009,1 87,5 175,0 16 55,0 %